East Point, Canada
Current Conditions -  °F | °C
As of 12:00 PM on Saturday 25 Oct 2014 (Local Time) from CYYG Reporting Station
Drizzle Drizzle  
Wind Chill: 50°   Ceiling: 400
Heat Index: 50°   Visibility: 2mi
Dew Point: 48°   Wind: 7mph
Humidity: 94%   Direction: 360°N
Pressure: 29.47"   Gusts: NA
Location:  46.45°N, 61.97°W
Report Text: CYYG 251500Z 36006KT 2SM -DZ BR OVC004 10/09 A2947 RMK SF8 SLP979
Loading
Personal Weather Stations






























Interactive Weather Map
Tropical Storm Tracking
New forecast layout! Learn more

10-Day Weather Forecast

Advertisements
Track Severe Weather on mobile